• Join FlightAware (Why Join?)
  • Login
  • US Flag 
11:31AM EDT


 

Airport Tracker/Info


-or-


 

Live Flight TrackerFlight Track Log ✈ SKW6451 ✈ 07-May-2012 ✈ KPDX - KSEA

Flight Track Log - Related Links

Times and Time Zones

All times are in EDT time to prevent confusion due to time zone crossing. See the SKW6451 flight status page for this flight to view local times or setup timezone preferences in your user account.

Time Position Orientation Groundspeed Altitude Reporting Facility
EDT Latitude Longitude Course Direction KTS MPH feet Rate Location/Type
08:32PM 45.5944 -122.5936 294° West 140 161 700  Level Seattle Center
08:33PM 45.6100 -122.6439 307° West 161 185 2,200 1,560 Climbing Seattle Center
08:34PM 45.6397 -122.7000 350° North 193 222 3,800 1,620 Climbing Seattle Center
08:35PM 45.6967 -122.7144 354° North 207 238 5,600 1,860 Climbing Seattle Center
08:36PM 45.7536 -122.7228 356° North 210 242 7,800 1,980 Climbing Seattle Center
08:37PM 45.8106 -122.7281 355° North 207 238 9,700 1,860 Climbing Seattle Center
08:39PM 45.8683 -122.7347 354° North 207 238 11,600 1,680 Climbing Seattle Center
08:40PM 45.9281 -122.7442 354° North 213 245 13,200 1,680 Climbing Seattle Center
08:41PM 46.0014 -122.7550 354° North 220 253 15,100 1,320 Climbing Seattle Center
08:42PM 46.0639 -122.7644 353° North 224 258 16,000 420 Climbing Seattle Center
08:43PM 46.1386 -122.7775 356° North 271 312 16,000  Level Seattle Center
08:44PM 46.2086 -122.7850 353° North 264 304 16,000  Level Seattle Center
08:45PM 46.2842 -122.7975 354° North 271 312 16,000  Level Seattle Center
08:46PM 46.3611 -122.8097 354° North 277 319 16,000  Level Seattle Center
08:47PM 46.4528 -122.8247 354° North 278 320 16,100  Climbing Seattle Center
08:48PM 46.5294 -122.8361 355° North 279 321 16,100  Level Seattle Center
08:49PM 46.6058 -122.8467 354° North 279 321 16,100  Level Seattle Center
08:50PM 46.6833 -122.8581 354° North 281 323 16,100 -300 Level Seattle Center
08:51PM 46.7597 -122.8703 354° North 279 321 15,500 -1,140 Descending Seattle Center
08:52PM 46.8353 -122.8819 353° North 277 319 13,800 -2,040 Descending Seattle Center
08:52PM 46.8822 -122.8903 42° Northeast 272 313 12,400 -1,980 Descending Seattle Center
08:53PM 46.9042 -122.8617 43° Northeast 282 325 11,800 -1,800 Descending Seattle Center
08:53PM 46.9386 -122.8147 50° Northeast 276 318 10,600 -1,680 Descending Seattle Center
08:54PM 46.9558 -122.7844 43° Northeast 268 308 10,100 -540 Descending Seattle Center
08:54PM 46.9967 -122.7283 43° Northeast 262 302 10,000 -300 Descending Seattle Center
08:55PM 47.0481 -122.6586 45° Northeast 250 288 9,700 -840 Descending Seattle Center
08:57PM 47.0983 -122.5858 41° Northeast 240 276 8,300 -1,260 Descending Seattle Center
08:58PM 47.1553 -122.5125 42° Northeast 254 292 7,100 -1,200 Descending Seattle Center
08:59PM 47.2103 -122.4403 38° Northeast 266 306 5,900 -1,140 Descending Seattle Center
09:00PM 47.2686 -122.3725 25° Northeast 268 308 4,800 -1,620 Descending Seattle Center
09:01PM 47.3386 -122.3242 North 239 275 2,500 -1,800 Descending Seattle Center
09:01PM 47.3775 -122.3192 North 206 237 1,600 -1,080 Descending Seattle Center
09:02PM 47.4006 -122.3186 359° North 149 171 1,200 -720 Descending Seattle Center
09:03PM 47.4197 -122.3189 357° North 131 151 800 -420 Descending Seattle Center
09:04PM 47.4636 -122.3225 357° North 120 138 400 -300 Descending Seattle Center